Weather at Episkopi Cantonment Helipad [CLOSED]

Public forecast

Using degrees Celsius for public forecast. Weather courtesy of forecast.io.

Closest aviation weather report (METAR) to Episkopi Cantonment Helipad

Closest report is RAF Akrotiri, 9.2 nm (17.1 km) SE.

2024/06/14 10:50 (retrieved 35 minutes ago)

LCRA 141050Z 19007KT 9999 FEW025 34/18 Q1008

Closest aviation forecast (TAF) to Episkopi Cantonment Helipad

Closest forecast is RAF Akrotiri, 9.2 nm (17.1 km) SE.

2024/06/14 09:33 (retrieved 2 hours ago)

TAF TAF LCRA 140730Z 1409/1503 18005KT CAVOK BECMG 1409/1412 20007KT